Time;durP1;ratioP1;P1;durP2;ratioP2;P2;SDS_P1;SDS_P2;PMS_P1;PMS_P2;Temp;Humidity;BMP_temperature;BMP_pressure;BME280_temperature;BME280_humidity;BME280_pressure;Samples;Min_cycle;Max_cycle;Signal;HPM_P1;HPM_P2
2023/02/27 00:02:03;;;;;;;;;3.25;3.00;;;;;3.30;45.52;101633.84;5095456;27;45674;-77
2023/02/27 00:04:29;;;;;;;;;3.50;3.50;;;;;3.32;45.29;101637.25;5095579;27;45571;-77
2023/02/27 00:06:54;;;;;;;;;4.00;2.25;;;;;3.30;45.23;101628.66;5094895;27;46304;-77
2023/02/27 00:09:20;;;;;;;;;3.50;3.00;;;;;3.27;45.32;101624.44;5095150;27;46162;-76
2023/02/27 00:11:45;;;;;;;;;4.00;4.00;;;;;3.29;45.52;101627.00;5095787;27;45628;-77
2023/02/27 00:14:10;;;;;;;;;0.00;0.00;;;;;3.28;45.46;101625.28;5096207;27;45558;-77
2023/02/27 00:16:36;;;;;;;;;6.50;2.50;;;;;3.28;45.55;101638.22;5095065;27;45511;-77
2023/02/27 00:19:03;;;;;;;;;2.25;2.25;;;;;3.23;45.46;101622.81;5095502;27;46305;-77
2023/02/27 00:21:30;;;;;;;;;4.50;3.50;;;;;3.23;45.71;101630.56;5096255;27;45512;-76
2023/02/27 00:23:55;;;;;;;;;4.00;4.00;;;;;3.23;45.52;101624.53;5096131;27;45809;-76
2023/02/27 00:26:21;;;;;;;;;4.00;4.00;;;;;3.19;45.62;101626.34;5096121;27;47292;-78
2023/02/27 00:28:55;;;;;;;;;4.75;4.00;;;;;3.13;45.85;101618.72;5095960;27;46811;-77
2023/02/27 00:31:20;;;;;;;;;3.00;3.00;;;;;3.11;46.06;101615.34;5096604;27;45651;-76
2023/02/27 00:33:45;;;;;;;;;0.00;0.00;;;;;3.15;45.95;101627.31;5096291;27;45586;-77
2023/02/27 00:39:32;;;;;;;;;4.00;4.00;;;;;3.10;46.27;101628.31;5094512;27;45624;-78
2023/02/27 00:41:58;;;;;;;;;2.00;1.00;;;;;3.08;46.49;101620.56;5094120;27;45531;-77
2023/02/27 00:44:23;;;;;;;;;3.25;3.25;;;;;3.04;46.24;101620.69;5094894;27;45520;-77
2023/02/27 00:46:48;;;;;;;;;3.25;3.00;;;;;2.95;46.39;101606.22;5094479;27;46262;-77
2023/02/27 00:49:14;;;;;;;;;2.25;2.25;;;;;3.02;46.29;101625.91;5094618;27;46191;-77
2023/02/27 00:55:01;;;;;;;;;4.00;3.75;;;;;2.95;46.73;101614.00;5094139;27;45604;-78
2023/02/27 00:57:26;;;;;;;;;6.00;5.00;;;;;2.95;46.79;101625.19;5094659;27;45445;-77
2023/02/27 00:59:52;;;;;;;;;6.00;4.00;;;;;3.00;46.64;101627.69;5094284;27;47099;-77
2023/02/27 01:02:17;;;;;;;;;4.50;4.50;;;;;2.99;46.49;101638.91;5094506;27;45744;-78
2023/02/27 01:04:42;;;;;;;;;3.00;3.00;;;;;2.96;46.55;101633.81;5094442;27;45567;-76
2023/02/27 01:10:43;;;;;;;;;3.25;3.25;;;;;2.92;46.96;101638.19;5084541;27;46139;-77
2023/02/27 01:13:08;;;;;;;;;4.00;4.00;;;;;2.92;47.45;101637.34;5093025;27;45707;-77
2023/02/27 01:15:34;;;;;;;;;5.75;4.75;;;;;2.86;47.06;101622.81;5094537;27;45670;-77
2023/02/27 01:17:59;;;;;;;;;4.00;4.00;;;;;2.86;47.01;101632.34;5094310;27;45404;-76
2023/02/27 01:20:25;;;;;;;;;6.00;4.75;;;;;2.83;46.88;101622.03;5093955;27;46396;-76
2023/02/27 01:26:12;;;;;;;;;4.00;3.00;;;;;2.75;47.48;101614.47;5094305;27;45517;-78
2023/02/27 01:28:37;;;;;;;;;3.75;3.75;;;;;2.76;47.31;101636.00;5094600;27;46272;-76
2023/02/27 01:31:03;;;;;;;;;4.25;3.25;;;;;2.84;47.14;101629.78;5094531;27;46312;-77
2023/02/27 01:33:28;;;;;;;;;3.25;3.00;;;;;2.78;47.21;101626.47;5095486;27;45702;-77
2023/02/27 01:35:53;;;;;;;;;5.50;4.00;;;;;2.79;47.49;101641.13;5098880;27;45540;-75
2023/02/27 01:41:56;;;;;;;;;;;;;;;;;;;;;
2023/02/27 01:58:28;;;;;;;;;4.00;4.00;;;;;2.69;48.22;101618.91;4995452;28;45906;-77
2023/02/27 02:04:59;;;;;;;;;5.50;4.00;;;;;2.64;48.28;101621.63;4819641;29;45841;-76
2023/02/27 02:07:26;;;;;;;;;3.50;3.50;;;;;2.16;48.17;101539.94;4822257;29;46724;-76
2023/02/27 02:09:56;;;;;;;;;7.00;6.00;;;;;2.65;48.49;101609.50;4822867;29;45758;-76
2023/02/27 02:12:25;;;;;;;;;7.00;6.00;;;;;2.48;48.71;101578.88;4823387;29;45746;-75
2023/02/27 02:14:51;;;;;;;;;7.00;6.00;;;;;2.54;48.48;101597.66;4822818;29;46487;-77
2023/02/27 02:17:42;;;;;;;;;6.00;3.25;;;;;2.60;48.58;101609.63;4822829;29;47168;-75
2023/02/27 02:20:14;;;;;;;;;5.50;4.00;;;;;2.58;48.64;101593.31;4822753;29;45673;-77
2023/02/27 02:23:17;;;;;;;;;6.25;4.50;;;;;2.58;48.48;101605.38;4822866;29;45777;-76
2023/02/27 02:25:51;;;;;;;;;4.50;3.50;;;;;2.56;48.43;101600.22;4821399;29;46946;-78
2023/02/27 02:28:43;;;;;;;;;3.50;3.25;;;;;2.47;49.03;101579.75;4823628;29;47618;-77
2023/02/27 02:31:42;;;;;;;;;4.00;4.00;;;;;2.48;48.52;101594.38;4823890;29;46114;-77
2023/02/27 02:34:14;;;;;;;;;3.00;2.00;;;;;2.48;48.87;101600.38;4836100;29;45692;-75
2023/02/27 02:37:04;;;;;;;;;3.75;3.00;;;;;2.50;49.06;101592.59;4878814;29;46409;-77
2023/02/27 02:39:52;;;;;;;;;1.50;1.00;;;;;2.49;48.93;101617.59;4957844;27;46674;-76
2023/02/27 02:42:26;;;;;;;;;3.00;3.00;;;;;2.46;49.02;101601.31;5097882;27;45679;-79
2023/02/27 02:45:36;;;;;;;;;4.00;3.75;;;;;2.39;48.93;101587.66;5097812;27;45564;-76
2023/02/27 02:48:01;;;;;;;;;3.50;3.00;;;;;2.46;49.00;101590.97;5074668;27;45797;-77
2023/02/27 02:50:47;;;;;;;;;4.00;4.00;;;;;2.47;48.98;101596.13;5074348;28;46045;-76
2023/02/27 02:56:52;;;;;;;;;6.00;4.00;;;;;2.42;49.13;101587.63;5074235;28;45645;-76
2023/02/27 02:59:42;;;;;;;;;4.00;3.00;;;;;2.48;49.13;101604.72;5074618;28;46518;-77
2023/02/27 03:02:13;;;;;;;;;1.00;1.00;;;;;2.47;49.15;101601.28;5073991;28;46072;-77
2023/02/27 03:11:55;;;;;;;;;5.00;3.00;;;;;2.29;48.50;101569.81;4994938;28;45758;-77
2023/02/27 03:21:55;;;;;;;;;5.00;3.00;;;;;1.58;48.81;101474.81;4847919;29;45501;-78
2023/02/27 03:28:01;;;;;;;;;3.00;3.00;;;;;2.38;48.96;101592.84;4858601;28;45781;-77
2023/02/27 03:31:04;;;;;;;;;;;;;;;;;;;;;
2023/02/27 03:33:47;;;;;;;;;2.50;1.00;;;;;2.39;48.61;101610.94;4859470;29;67736;-76
2023/02/27 03:36:36;;;;;;;;;3.75;3.00;;;;;2.38;48.83;101608.38;4858545;29;46666;-75
2023/02/27 03:39:26;;;;;;;;;1.00;1.00;;;;;2.36;49.06;101608.44;4859016;29;45820;-77
2023/02/27 03:42:17;;;;;;;;;4.00;4.00;;;;;2.36;48.85;101626.53;4858426;29;45923;-76
2023/02/27 03:45:01;;;;;;;;;3.00;3.00;;;;;2.37;48.85;101612.72;4845488;29;45825;-77
2023/02/27 03:47:28;;;;;;;;;3.00;3.00;;;;;2.34;48.58;101609.31;4857900;29;45674;-77
2023/02/27 03:49:54;;;;;;;;;1.00;1.00;;;;;2.34;48.67;101617.09;4858594;29;46293;-78
2023/02/27 03:52:22;;;;;;;;;4.00;3.25;;;;;2.35;48.75;101611.91;4892449;29;45889;-77
2023/02/27 03:58:11;;;;;;;;;3.50;3.50;;;;;2.34;48.93;101612.78;4946355;28;45661;-77
2023/02/27 04:00:36;;;;;;;;;4.25;3.00;;;;;2.36;48.70;101626.53;5012320;28;46201;-75
2023/02/27 04:03:07;;;;;;;;;2.50;2.50;;;;;2.29;48.45;101609.44;4995903;28;45634;-76
2023/02/27 04:05:33;;;;;;;;;3.00;3.00;;;;;2.35;48.89;101623.97;5012405;28;45868;-76
2023/02/27 04:08:31;;;;;;;;;6.00;3.00;;;;;2.34;48.50;101628.28;5011753;28;46402;-78
2023/02/27 04:14:35;;;;;;;;;3.00;3.00;;;;;2.18;48.89;101602.78;5009076;28;46065;-76
2023/02/27 04:17:30;;;;;;;;;2.50;1.50;;;;;2.34;48.93;101627.44;5012756;28;45934;-76
2023/02/27 04:20:25;;;;;;;;;3.50;3.00;;;;;2.32;49.04;101624.88;5012455;28;45726;-78
2023/02/27 04:23:05;;;;;;;;;3.25;3.25;;;;;2.17;48.92;101617.44;5089784;27;46408;-77
2023/02/27 04:28:52;;;;;;;;;3.00;3.00;;;;;2.24;48.98;101637.13;5095742;27;45734;-77
2023/02/27 04:32:02;;;;;;;;;5.00;3.50;;;;;1.81;49.04;101559.59;5099056;27;46355;-76
2023/02/27 04:35:29;;;;;;;;;3.00;3.00;;;;;2.26;49.20;101653.47;5099470;27;46928;-77
2023/02/27 04:38:03;;;;;;;;;7.50;5.00;;;;;2.27;49.35;101637.03;5032633;28;45683;-76
2023/02/27 04:40:38;;;;;;;;;3.00;3.00;;;;;2.27;48.96;101644.78;5072125;28;45609;-76
2023/02/27 04:43:08;;;;;;;;;3.25;2.50;;;;;2.26;49.32;101648.28;5072284;28;46607;-77
2023/02/27 04:45:40;;;;;;;;;3.75;3.25;;;;;2.18;48.78;101626.03;5071896;28;46219;-76
2023/02/27 04:48:12;;;;;;;;;4.50;3.75;;;;;2.28;49.18;101646.50;5072094;28;45640;-78
2023/02/27 04:50:50;;;;;;;;;1.00;1.00;;;;;2.27;49.25;101649.97;5071716;28;45782;-77
2023/02/27 04:53:28;;;;;;;;;1.00;1.00;;;;;2.26;49.63;101657.78;5072327;28;45589;-76
2023/02/27 04:56:01;;;;;;;;;3.00;3.00;;;;;2.26;49.68;101655.19;5071463;28;46190;-76
2023/02/27 04:58:35;;;;;;;;;4.50;3.00;;;;;2.27;49.06;101656.91;5073286;28;45930;-77
2023/02/27 05:01:15;;;;;;;;;3.75;3.25;;;;;2.23;49.25;101650.06;5072296;28;45972;-76
2023/02/27 05:03:46;;;;;;;;;3.50;3.00;;;;;2.16;49.74;101651.09;5072128;28;47666;-76
2023/02/27 05:06:14;;;;;;;;;3.25;3.00;;;;;2.22;49.29;101661.28;5071726;28;46195;-77
2023/02/27 05:09:00;;;;;;;;;4.50;4.00;;;;;2.18;49.78;101655.31;5085410;27;45836;-77
2023/02/27 05:11:49;;;;;;;;;4.00;4.00;;;;;2.24;49.52;101660.38;5096708;27;45773;-76
2023/02/27 05:14:22;;;;;;;;;3.00;3.00;;;;;2.18;49.92;101649.31;5097601;27;47408;-78
2023/02/27 05:17:01;;;;;;;;;3.00;1.00;;;;;2.22;50.33;101654.38;5097650;27;47211;-76
2023/02/27 05:19:26;;;;;;;;;3.00;2.50;;;;;2.23;49.76;101663.84;5097618;27;45837;-78
2023/02/27 05:22:09;;;;;;;;;5.50;4.00;;;;;2.24;49.90;101678.47;5098130;27;45776;-76
2023/02/27 05:27:50;;;;;;;;;7.00;4.00;;;;;2.19;50.59;101664.78;5097532;27;45810;-77
2023/02/27 05:30:29;;;;;;;;;4.50;3.50;;;;;2.16;50.06;101670.00;5097453;27;46030;-78
2023/02/27 05:33:04;;;;;;;;;2.50;1.50;;;;;2.20;50.37;101681.16;5097751;27;45967;-76
2023/02/27 05:35:51;;;;;;;;;6.50;5.50;;;;;2.22;50.75;101674.19;5097771;27;45577;-78
2023/02/27 05:38:30;;;;;;;;;6.00;3.00;;;;;2.20;50.26;101669.09;5098009;27;46292;-78
2023/02/27 05:44:30;;;;;;;;;6.50;4.00;;;;;2.11;50.50;101664.94;5097737;27;45798;-77
2023/02/27 05:47:13;;;;;;;;;4.50;4.00;;;;;2.16;50.72;101677.75;5097352;27;46553;-77
2023/02/27 05:49:45;;;;;;;;;12.00;6.75;;;;;2.14;50.49;101678.69;5096714;27;46165;-78
2023/02/27 05:52:16;;;;;;;;;4.00;4.00;;;;;2.15;50.91;101680.38;5097652;27;46008;-77
2023/02/27 05:54:49;;;;;;;;;6.00;6.00;;;;;2.11;51.05;101677.00;5095898;27;45925;-78
2023/02/27 06:00:41;;;;;;;;;5.00;4.00;;;;;2.05;50.91;101682.31;5097094;27;45615;-77
2023/02/27 06:03:06;;;;;;;;;4.00;3.75;;;;;2.08;51.48;101684.81;5097210;27;45549;-78
2023/02/27 06:05:32;;;;;;;;;3.50;3.50;;;;;2.01;51.26;101676.31;5097368;27;45451;-77
2023/02/27 06:07:58;;;;;;;;;3.75;3.25;;;;;2.06;51.79;101689.16;5097241;27;46238;-76
2023/02/27 06:10:24;;;;;;;;;6.00;4.00;;;;;2.02;51.64;101684.94;5096743;27;46001;-76
2023/02/27 06:16:51;;;;;;;;;6.00;4.00;;;;;2.01;51.77;101697.00;5092280;27;45838;-79
2023/02/27 06:19:16;;;;;;;;;4.50;3.00;;;;;1.97;52.01;101700.53;5096839;27;45544;-77
2023/02/27 06:21:41;;;;;;;;;4.00;4.00;;;;;1.99;51.71;101690.16;5096186;27;46048;-76
2023/02/27 06:24:07;;;;;;;;;6.00;3.75;;;;;1.98;52.19;101696.22;5113670;27;45577;-78
2023/02/27 06:26:32;;;;;;;;;7.00;4.00;;;;;1.97;52.02;101702.25;5097655;27;45779;-76
2023/02/27 06:28:58;;;;;;;;;4.00;4.00;;;;;1.91;52.36;101694.59;5096575;27;47172;-76
2023/02/27 06:31:24;;;;;;;;;2.00;2.00;;;;;1.96;52.32;101706.56;5095922;27;46037;-77
2023/02/27 06:33:49;;;;;;;;;4.50;3.25;;;;;1.97;52.42;101707.41;5096507;27;45662;-76
2023/02/27 06:36:15;;;;;;;;;5.00;4.00;;;;;1.93;52.57;101700.59;5097454;27;45845;-77
2023/02/27 06:38:40;;;;;;;;;4.00;4.00;;;;;1.97;52.68;101705.69;5097087;27;46215;-77
2023/02/27 06:41:06;;;;;;;;;6.00;4.00;;;;;1.95;52.63;101702.28;5097215;27;46144;-77
2023/02/27 06:43:33;;;;;;;;;6.00;6.00;;;;;1.89;52.44;101699.78;5096754;27;45625;-77
2023/02/27 06:45:59;;;;;;;;;4.00;4.00;;;;;1.92;52.61;101710.09;5096372;27;45670;-79
2023/02/27 06:48:25;;;;;;;;;3.00;3.00;;;;;1.92;52.43;101716.97;5096587;27;47404;-74
2023/02/27 06:50:52;;;;;;;;;2.50;2.00;;;;;1.94;52.56;101717.81;5095384;27;46179;-74
2023/02/27 06:53:18;;;;;;;;;5.50;4.00;;;;;1.87;52.52;101703.31;5095138;27;45714;-75
2023/02/27 06:55:43;;;;;;;;;5.50;4.00;;;;;2.01;51.96;101725.41;5096129;27;45801;-73
2023/02/27 06:58:09;;;;;;;;;6.50;3.00;;;;;2.04;52.40;101734.88;5095974;27;46366;-74
2023/02/27 07:00:35;;;;;;;;;6.00;4.00;;;;;2.06;52.26;101733.09;5094608;27;46169;-76
2023/02/27 07:03:03;;;;;;;;;6.00;4.00;;;;;2.08;51.95;101741.69;5096802;27;45851;-76
2023/02/27 07:05:29;;;;;;;;;3.25;2.50;;;;;2.10;52.50;101732.16;5097012;27;45799;-77
2023/02/27 07:07:54;;;;;;;;;6.00;4.00;;;;;1.95;52.22;101701.41;5098118;27;46498;-75
2023/02/27 07:10:19;;;;;;;;;5.50;5.00;;;;;2.14;51.92;101730.38;5097108;27;46153;-80
2023/02/27 07:12:45;;;;;;;;;6.00;4.00;;;;;2.12;52.00;101732.97;5096394;27;45775;-77
2023/02/27 07:15:10;;;;;;;;;7.00;4.00;;;;;2.15;51.94;101738.09;5096142;27;45852;-76
2023/02/27 07:17:36;;;;;;;;;4.50;4.00;;;;;2.12;51.61;101735.56;5096836;27;45693;-76
2023/02/27 07:20:04;;;;;;;;;1.00;0.50;;;;;2.15;52.11;101745.00;5096424;27;45585;-73
2023/02/27 07:22:29;;;;;;;;;3.00;2.50;;;;;2.15;51.42;101745.88;5095933;27;45558;-72
2023/02/27 07:24:55;;;;;;;;;4.00;4.00;;;;;2.10;51.85;101743.38;5095951;27;45539;-76
2023/02/27 07:27:20;;;;;;;;;4.00;4.00;;;;;2.14;51.60;101746.75;5095958;27;46295;-75
2023/02/27 07:29:45;;;;;;;;;4.00;3.00;;;;;2.15;51.78;101743.28;5095764;27;45805;-72
2023/02/27 07:32:11;;;;;;;;;4.00;4.00;;;;;2.15;52.33;101750.19;5093958;27;45774;-72
2023/02/27 07:34:36;;;;;;;;;4.00;4.00;;;;;2.17;52.04;101746.66;5096153;27;45647;-72
2023/02/27 07:37:01;;;;;;;;;7.00;5.00;;;;;2.19;51.57;101773.34;5095469;27;46657;-74
2023/02/27 07:39:27;;;;;;;;;9.50;4.00;;;;;2.21;51.58;101766.44;5095463;27;46327;-74
2023/02/27 07:41:52;;;;;;;;;4.00;4.00;;;;;2.21;51.89;101757.81;5095779;27;45726;-75
2023/02/27 07:47:39;;;;;;;;;5.50;4.00;;;;;2.19;51.59;101750.09;5095114;27;45656;-74
2023/02/27 07:50:05;;;;;;;;;3.25;3.25;;;;;2.19;51.59;101757.00;5094104;27;46972;-75
2023/02/27 07:52:30;;;;;;;;;6.25;4.00;;;;;2.19;51.71;101757.00;5111035;27;45664;-76
2023/02/27 07:54:55;;;;;;;;;1.00;0.00;;;;;2.21;51.54;101769.03;5095831;27;45743;-75
2023/02/27 07:57:22;;;;;;;;;7.00;6.00;;;;;2.20;52.09;101762.13;5095165;27;47251;-73
2023/02/27 07:59:47;;;;;;;;;5.50;4.00;;;;;2.20;51.39;101756.97;5095306;27;46062;-73
2023/02/27 08:02:13;;;;;;;;;9.00;7.00;;;;;2.28;51.67;101768.00;5095112;27;45585;-75
2023/02/27 08:04:38;;;;;;;;;5.00;5.00;;;;;2.28;51.59;101762.84;5095493;27;45588;-75
2023/02/27 08:07:04;;;;;;;;;6.00;4.00;;;;;2.32;51.33;101769.66;5095278;27;45633;-73
2023/02/27 08:09:30;;;;;;;;;3.25;3.25;;;;;2.27;51.42;101750.78;5094917;27;45585;-72
2023/02/27 08:11:56;;;;;;;;;6.25;5.00;;;;;2.33;50.91;101768.78;5095175;27;45645;-72
2023/02/27 08:17:44;;;;;;;;;4.00;3.25;;;;;2.40;51.18;101772.97;5085050;27;46053;-76
2023/02/27 08:20:11;;;;;;;;;5.50;4.50;;;;;2.42;51.11;101783.28;5096431;27;46052;-73
2023/02/27 08:22:37;;;;;;;;;6.50;3.25;;;;;2.42;50.60;101766.03;5095079;27;45901;-77
2023/02/27 08:25:20;;;;;;;;;4.00;4.00;;;;;2.44;50.99;101760.81;5096577;27;45600;-73
2023/02/27 08:27:49;;;;;;;;;6.00;4.00;;;;;2.40;50.66;101756.59;5095522;27;46460;-75
2023/02/27 08:30:18;;;;;;;;;6.00;5.00;;;;;2.50;50.68;101773.63;5094892;27;47051;-73
2023/02/27 08:32:44;;;;;;;;;6.00;4.00;;;;;2.50;50.48;101776.22;5094747;27;45593;-71
2023/02/27 08:35:09;;;;;;;;;6.50;4.00;;;;;2.52;50.53;101767.56;5093558;27;45926;-74
2023/02/27 08:37:35;;;;;;;;;4.50;4.50;;;;;2.55;49.93;101758.88;5094722;27;46395;-74
2023/02/27 08:40:09;;;;;;;;;3.00;3.00;;;;;2.47;50.37;101761.63;5095855;27;45544;-74
2023/02/27 08:42:35;;;;;;;;;3.75;3.75;;;;;2.58;49.59;101752.81;5096634;27;45603;-72
2023/02/27 08:48:23;;;;;;;;;4.50;4.00;;;;;2.69;49.23;101762.06;5096188;27;45670;-76
2023/02/27 08:50:49;;;;;;;;;3.75;3.75;;;;;2.65;48.94;101759.53;5094863;27;46346;-75
2023/02/27 08:53:14;;;;;;;;;5.75;4.50;;;;;2.72;48.97;101781.81;5095071;27;45623;-74
2023/02/27 08:55:41;;;;;;;;;7.00;4.50;;;;;2.69;48.79;101766.38;5094058;27;45791;-73
2023/02/27 08:58:07;;;;;;;;;4.50;3.25;;;;;2.69;48.71;101750.84;5094992;27;46599;-73
2023/02/27 09:00:32;;;;;;;;;6.50;6.00;;;;;2.84;48.70;101776.41;5094939;27;46164;-71
2023/02/27 09:02:58;;;;;;;;;3.00;2.75;;;;;2.87;48.54;101778.91;5094960;27;45494;-73
2023/02/27 09:05:27;;;;;;;;;6.00;4.00;;;;;2.89;48.37;101772.84;5094858;27;45752;-73
2023/02/27 09:07:52;;;;;;;;;5.50;4.00;;;;;2.94;48.16;101777.91;5094752;27;46447;-73
2023/02/27 09:10:18;;;;;;;;;1.00;1.00;;;;;2.99;47.98;101790.75;5094474;27;52141;-71
2023/02/27 09:12:44;;;;;;;;;3.75;3.00;;;;;3.01;47.48;101783.81;5094697;27;45591;-71
2023/02/27 09:18:30;;;;;;;;;4.25;4.00;;;;;3.11;47.45;101785.34;5087100;27;46001;-75
2023/02/27 09:20:55;;;;;;;;;5.75;5.00;;;;;3.05;47.46;101772.53;5095175;27;46995;-74
2023/02/27 09:23:21;;;;;;;;;6.25;5.75;;;;;3.20;47.71;101817.06;5095370;27;45553;-73
2023/02/27 09:25:47;;;;;;;;;4.25;4.00;;;;;3.22;47.21;101788.53;5093252;27;45617;-72
2023/02/27 09:28:12;;;;;;;;;6.00;6.00;;;;;3.20;46.90;101783.41;5094246;27;46755;-72
2023/02/27 09:34:00;;;;;;;;;5.00;3.75;;;;;3.29;47.08;101790.13;5094010;27;45903;-75
2023/02/27 09:36:26;;;;;;;;;3.50;3.00;;;;;3.34;46.99;101786.56;5093891;27;45581;-72
2023/02/27 09:38:52;;;;;;;;;4.00;2.25;;;;;3.39;46.70;101791.63;5093793;27;46438;-77
2023/02/27 09:41:30;;;;;;;;;5.25;4.75;;;;;3.45;46.43;101793.22;5093900;27;46035;-75
2023/02/27 09:43:55;;;;;;;;;5.00;3.75;;;;;3.48;46.53;101795.72;5094137;27;45853;-75
2023/02/27 09:46:24;;;;;;;;;6.00;5.75;;;;;3.45;46.24;101788.03;5093983;27;45834;-74
2023/02/27 09:49:00;;;;;;;;;4.00;4.00;;;;;3.54;46.08;101799.03;5093900;27;45606;-72
2023/02/27 09:51:29;;;;;;;;;5.25;4.00;;;;;3.57;46.33;101787.72;5093635;27;46498;-75
2023/02/27 09:53:58;;;;;;;;;4.00;2.25;;;;;3.65;45.97;101802.22;5093851;27;45565;-73
2023/02/27 09:56:31;;;;;;;;;1.00;1.00;;;;;3.70;46.07;101790.03;5095418;27;45571;-71
2023/02/27 09:59:38;;;;;;;;;5.00;3.50;;;;;3.71;45.92;101801.25;5097364;27;46379;-73
2023/02/27 10:02:18;;;;;;;;;2.25;2.25;;;;;3.75;45.60;101792.50;5097834;27;46083;-72
2023/02/27 10:05:19;;;;;;;;;5.25;2.25;;;;;3.79;45.72;101800.16;5097715;27;45902;-73
2023/02/27 10:08:10;;;;;;;;;7.00;5.00;;;;;3.86;45.66;101803.47;5097329;27;45489;-73
2023/02/27 10:10:43;;;;;;;;;5.25;3.25;;;;;3.83;45.55;101800.94;5097285;27;46820;-73
2023/02/27 10:13:24;;;;;;;;;2.50;2.50;;;;;3.94;45.21;101801.50;5097395;27;45639;-76
2023/02/27 10:15:52;;;;;;;;;2.00;2.00;;;;;3.91;45.02;101795.56;5097037;27;45820;-73
2023/02/27 10:18:30;;;;;;;;;4.00;2.00;;;;;3.96;44.86;101798.91;5097553;27;45765;-76
2023/02/27 10:20:59;;;;;;;;;1.00;1.00;;;;;4.03;45.18;101803.06;5098679;27;46488;-73
2023/02/27 10:23:57;;;;;;;;;4.00;2.50;;;;;4.09;44.39;101789.94;5098339;27;47064;-72
2023/02/27 10:26:28;;;;;;;;;5.00;4.00;;;;;4.12;44.35;101808.84;5095853;27;45798;-73
2023/02/27 10:31:48;;;;;;;;;5.00;3.50;;;;;4.10;44.37;101800.25;5097483;27;45665;-75
2023/02/27 10:34:15;;;;;;;;;2.50;2.00;;;;;4.20;44.23;101806.94;5096792;27;47174;-75
2023/02/27 10:36:44;;;;;;;;;7.75;4.00;;;;;4.16;43.89;101789.72;5096948;27;45532;-73
2023/02/27 10:39:14;;;;;;;;;4.00;2.00;;;;;4.26;43.79;101795.53;5095743;27;45937;-72
2023/02/27 10:41:41;;;;;;;;;2.00;1.75;;;;;4.19;43.74;101784.47;5097215;27;46794;-74
2023/02/27 10:44:08;;;;;;;;;3.75;2.00;;;;;4.35;43.91;101791.84;5096724;27;47580;-74
2023/02/27 10:46:36;;;;;;;;;6.50;2.00;;;;;4.37;43.72;101787.47;5108998;27;45758;-71
2023/02/27 10:49:15;;;;;;;;;3.00;1.75;;;;;4.39;43.48;101780.50;5096858;27;45498;-72
2023/02/27 10:51:43;;;;;;;;;3.00;3.00;;;;;4.47;43.04;101788.94;5096253;27;46507;-73
2023/02/27 10:54:17;;;;;;;;;4.00;4.00;;;;;4.60;42.62;101795.47;5096542;27;46284;-72
2023/02/27 10:56:48;;;;;;;;;4.25;3.50;;;;;4.60;42.89;101782.50;5096470;27;45658;-73
2023/02/27 11:02:24;;;;;;;;;4.00;3.50;;;;;4.66;42.66;101771.97;5096179;27;45646;-72
2023/02/27 11:04:55;;;;;;;;;3.50;3.50;;;;;4.76;42.90;101781.19;5111865;27;47179;-71
2023/02/27 11:07:32;;;;;;;;;2.00;2.00;;;;;4.84;42.71;101793.97;5095465;27;45659;-72
2023/02/27 11:10:14;;;;;;;;;1.25;1.00;;;;;4.90;41.52;101792.03;5096075;27;46013;-74
2023/02/27 11:12:42;;;;;;;;;1.00;1.00;;;;;4.93;41.13;101781.56;5096141;27;45575;-75
2023/02/27 11:18:30;;;;;;;;;2.00;1.00;;;;;4.99;40.66;101759.75;5095856;27;45921;-71
2023/02/27 11:21:16;;;;;;;;;1.50;1.00;;;;;5.08;40.35;101782.84;5096127;27;45470;-75
2023/02/27 11:24:17;;;;;;;;;1.00;1.00;;;;;5.11;40.23;101767.19;5095627;27;46370;-72
2023/02/27 11:26:58;;;;;;;;;2.00;2.00;;;;;5.08;40.11;101754.28;5095481;27;47300;-73
2023/02/27 11:29:25;;;;;;;;;3.00;2.50;;;;;5.21;39.95;101762.56;5096088;27;45655;-71
2023/02/27 11:35:24;;;;;;;;;1.50;1.00;;;;;5.27;39.53;101785.75;5095485;27;45603;-73
2023/02/27 11:37:51;;;;;;;;;2.00;2.00;;;;;5.32;39.24;101771.75;5095422;27;46314;-74
2023/02/27 11:40:19;;;;;;;;;4.75;1.75;;;;;5.35;38.92;101770.78;5095631;27;45874;-72
2023/02/27 11:42:48;;;;;;;;;4.50;2.00;;;;;5.37;39.01;101764.66;5095542;27;45880;-74
2023/02/27 11:45:19;;;;;;;;;1.00;1.00;;;;;5.38;38.64;101753.38;5095387;27;45947;-73
2023/02/27 11:47:50;;;;;;;;;1.25;1.25;;;;;5.44;38.91;101768.75;5095232;27;46210;-74
2023/02/27 11:50:29;;;;;;;;;1.00;1.00;;;;;5.48;38.29;101770.38;5095278;27;45783;-73
2023/02/27 11:53:00;;;;;;;;;2.00;1.75;;;;;5.51;38.33;101751.22;5095436;27;45443;-72
2023/02/27 11:55:29;;;;;;;;;4.25;2.00;;;;;5.55;39.08;101752.84;5095010;27;45922;-73
2023/02/27 11:58:11;;;;;;;;;2.00;1.00;;;;;5.60;38.40;101760.47;5095339;27;47425;-71
2023/02/27 12:00:48;;;;;;;;;1.50;1.25;;;;;5.63;37.82;101748.22;5095114;27;46056;-71
2023/02/27 12:03:45;;;;;;;;;2.00;2.00;;;;;5.68;37.70;101767.13;5095627;27;45537;-73
2023/02/27 12:06:26;;;;;;;;;1.00;1.00;;;;;5.69;37.95;101750.63;5095906;27;45826;-73
2023/02/27 12:08:58;;;;;;;;;4.00;2.00;;;;;5.71;38.17;101741.03;5096313;27;46089;-72
2023/02/27 12:11:28;;;;;;;;;1.00;1.00;;;;;5.73;38.10;101739.22;5095792;27;45785;-72
2023/02/27 12:14:20;;;;;;;;;3.50;3.50;;;;;5.78;37.44;101726.91;5096195;27;45495;-73
2023/02/27 12:16:50;;;;;;;;;3.75;1.75;;;;;5.84;37.18;101733.66;5095392;27;46747;-71
2023/02/27 12:19:37;;;;;;;;;1.50;1.50;;;;;5.88;37.26;101730.13;5095592;27;46438;-74
2023/02/27 12:22:37;;;;;;;;;1.25;1.25;;;;;5.85;37.56;101717.16;5095749;27;45624;-72
2023/02/27 12:25:14;;;;;;;;;2.00;1.00;;;;;5.95;37.13;101726.38;5095685;27;45566;-70
2023/02/27 12:27:58;;;;;;;;;2.00;2.00;;;;;6.01;36.64;101723.59;5094898;27;46359;-72
2023/02/27 12:34:13;;;;;;;;;2.00;1.50;;;;;6.08;36.56;101730.28;5096926;27;45776;-75
2023/02/27 12:36:38;;;;;;;;;3.00;1.00;;;;;6.08;36.35;101711.22;5097675;27;45757;-72
2023/02/27 12:39:04;;;;;;;;;1.00;1.00;;;;;6.12;36.82;101716.25;5095135;27;47307;-73
2023/02/27 12:41:29;;;;;;;;;4.00;2.50;;;;;6.17;37.15;101708.28;5095529;27;47184;-71
2023/02/27 12:44:19;;;;;;;;;5.00;4.00;;;;;6.23;36.84;101716.72;5095104;27;45599;-73
2023/02/27 12:50:21;;;;;;;;;1.50;1.50;;;;;6.34;36.91;101705.94;5094964;27;45682;-73
2023/02/27 12:53:24;;;;;;;;;4.25;2.00;;;;;6.39;36.42;101703.16;5095054;27;45688;-72
2023/02/27 12:56:14;;;;;;;;;2.00;2.00;;;;;6.44;35.90;101715.13;5095290;27;45517;-74
2023/02/27 12:59:07;;;;;;;;;2.00;2.00;;;;;6.47;35.85;101699.41;5072640;28;45743;-72
2023/02/27 13:02:10;;;;;;;;;5.00;2.50;;;;;6.51;35.23;101700.13;5072407;28;45845;-73
2023/02/27 13:04:52;;;;;;;;;4.75;2.00;;;;;6.51;35.96;101693.16;5071545;28;47235;-74
2023/02/27 13:07:26;;;;;;;;;2.00;2.00;;;;;6.55;35.42;101683.47;5071665;28;45832;-72
2023/02/27 13:10:00;;;;;;;;;1.25;1.25;;;;;6.59;35.56;101693.72;5072241;28;45608;-73
2023/02/27 13:12:42;;;;;;;;;3.50;2.00;;;;;6.65;35.64;101677.03;5072411;28;46820;-71
2023/02/27 13:15:26;;;;;;;;;1.75;1.00;;;;;6.66;34.99;101676.97;5072081;28;46186;-76
2023/02/27 13:18:00;;;;;;;;;2.50;1.00;;;;;6.74;34.97;101687.97;5071365;28;46002;-73
2023/02/27 13:20:28;;;;;;;;;1.00;1.00;;;;;6.73;34.64;101669.78;5071487;28;45761;-76
2023/02/27 13:23:26;;;;;;;;;5.00;2.00;;;;;6.79;34.40;101689.53;5071579;28;47316;-76
2023/02/27 13:25:55;;;;;;;;;0.50;0.50;;;;;6.77;33.77;101666.16;5031035;28;45674;-75
2023/02/27 13:28:26;;;;;;;;;1.75;1.00;;;;;6.83;34.02;101670.28;5031190;28;45703;-74
2023/02/27 13:34:26;;;;;;;;;1.00;1.00;;;;;6.90;33.53;101658.72;5034223;28;45657;-76
2023/02/27 13:36:58;;;;;;;;;3.50;2.00;;;;;6.93;33.39;101662.03;5073982;28;45813;-77
2023/02/27 13:39:45;;;;;;;;;1.00;1.00;;;;;7.01;33.15;101662.59;5075246;28;45787;-77
2023/02/27 13:42:26;;;;;;;;;1.00;1.00;;;;;7.03;33.19;101663.38;5075352;28;45755;-73
2023/02/27 13:45:02;;;;;;;;;2.50;1.50;;;;;7.07;33.42;101661.53;5074798;28;45669;-72
2023/02/27 13:50:50;;;;;;;;;1.25;0.75;;;;;7.15;32.37;101656.84;5075001;28;45737;-74
2023/02/27 13:53:18;;;;;;;;;4.00;1.75;;;;;7.18;33.15;101663.69;5075188;28;45870;-74
2023/02/27 13:55:44;;;;;;;;;2.00;1.00;;;;;7.22;32.82;101671.31;5074601;28;46944;-76
2023/02/27 13:58:17;;;;;;;;;1.00;1.00;;;;;7.27;32.11;101676.34;5074426;28;46184;-76
2023/02/27 14:00:54;;;;;;;;;2.00;1.00;;;;;7.31;32.21;101673.56;5074765;28;45663;-76
2023/02/27 14:06:44;;;;;;;;;1.00;1.00;;;;;7.37;31.96;101678.53;5097511;27;46064;-78
2023/02/27 14:09:12;;;;;;;;;2.00;1.00;;;;;7.43;31.95;101670.44;5097430;27;47161;-75
2023/02/27 14:11:38;;;;;;;;;1.00;1.00;;;;;7.44;31.68;101656.50;5097158;27;45643;-74